sensor_id;sensor_type;location;lat;lon;timestamp;pressure;altitude;pressure_sealevel;temperature;humidity
67818;BME280;54614;47.576;7.524;2023-04-26T00:02:24;98554.13;;;25.38;34.80
67818;BME280;54614;47.576;7.524;2023-04-26T00:04:54;98550.63;;;25.37;34.78
67818;BME280;54614;47.576;7.524;2023-04-26T00:07:26;98546.06;;;25.38;34.96
67818;BME280;54614;47.576;7.524;2023-04-26T00:09:53;98544.41;;;25.37;35.06
67818;BME280;54614;47.576;7.524;2023-04-26T00:12:19;98554.97;;;25.38;35.02
67818;BME280;54614;47.576;7.524;2023-04-26T00:14:46;98553.97;;;25.33;34.69
67818;BME280;54614;47.576;7.524;2023-04-26T00:17:12;98560.56;;;25.37;35.09
67818;BME280;54614;47.576;7.524;2023-04-26T00:19:38;98562.22;;;25.38;35.09
67818;BME280;54614;47.576;7.524;2023-04-26T00:22:04;98561.81;;;25.34;35.00
67818;BME280;54614;47.576;7.524;2023-04-26T00:24:30;98564.31;;;25.36;34.79
67818;BME280;54614;47.576;7.524;2023-04-26T00:26:57;98564.31;;;25.36;34.82
67818;BME280;54614;47.576;7.524;2023-04-26T00:29:23;98566.16;;;25.35;35.20
67818;BME280;54614;47.576;7.524;2023-04-26T00:31:49;98550.84;;;25.36;35.10
67818;BME280;54614;47.576;7.524;2023-04-26T00:34:14;98552.69;;;25.35;35.14
67818;BME280;54614;47.576;7.524;2023-04-26T00:36:44;98538.63;;;25.33;34.95
67818;BME280;54614;47.576;7.524;2023-04-26T00:39:10;98542.97;;;25.34;34.95
67818;BME280;54614;47.576;7.524;2023-04-26T00:41:36;98541.09;;;25.35;34.83
67818;BME280;54614;47.576;7.524;2023-04-26T00:44:02;98544.84;;;25.34;34.85
67818;BME280;54614;47.576;7.524;2023-04-26T00:46:28;98549.41;;;25.33;34.83
67818;BME280;54614;47.576;7.524;2023-04-26T00:48:56;98542.38;;;25.32;35.08
67818;BME280;54614;47.576;7.524;2023-04-26T00:51:22;98544.88;;;25.27;34.94
67818;BME280;54614;47.576;7.524;2023-04-26T00:53:48;98541.75;;;25.30;34.99
67818;BME280;54614;47.576;7.524;2023-04-26T00:56:15;98547.75;;;25.32;35.01
67818;BME280;54614;47.576;7.524;2023-04-26T00:58:42;98541.53;;;25.32;35.10
67818;BME280;54614;47.576;7.524;2023-04-26T01:01:08;98552.31;;;25.32;34.84
67818;BME280;54614;47.576;7.524;2023-04-26T01:03:34;98550.66;;;25.31;35.20
67818;BME280;54614;47.576;7.524;2023-04-26T01:06:00;98541.75;;;25.30;35.08
67818;BME280;54614;47.576;7.524;2023-04-26T01:08:26;98549.84;;;25.30;34.77
67818;BME280;54614;47.576;7.524;2023-04-26T01:10:53;98556.03;;;25.31;34.75
67818;BME280;54614;47.576;7.524;2023-04-26T01:13:19;98549.44;;;25.27;34.95
67818;BME280;54614;47.576;7.524;2023-04-26T01:15:46;98543.63;;;25.30;35.04
67818;BME280;54614;47.576;7.524;2023-04-26T01:18:12;98542.81;;;25.29;34.95
67818;BME280;54614;47.576;7.524;2023-04-26T01:20:42;98544.66;;;25.29;35.02
67818;BME280;54614;47.576;7.524;2023-04-26T01:23:09;98549.84;;;25.30;35.07
67818;BME280;54614;47.576;7.524;2023-04-26T01:25:36;98552.53;;;25.30;35.14
67818;BME280;54614;47.576;7.524;2023-04-26T01:28:02;98555.22;;;25.30;34.77
67818;BME280;54614;47.576;7.524;2023-04-26T01:30:28;98546.75;;;25.27;35.02
67818;BME280;54614;47.576;7.524;2023-04-26T01:32:54;98542.19;;;25.27;35.07
67818;BME280;54614;47.576;7.524;2023-04-26T01:35:20;98540.53;;;25.26;34.83
67818;BME280;54614;47.576;7.524;2023-04-26T01:37:46;98547.78;;;25.26;34.92
67818;BME280;54614;47.576;7.524;2023-04-26T01:40:12;98549.44;;;25.27;34.72
67818;BME280;54614;47.576;7.524;2023-04-26T01:42:38;98548.00;;;25.24;34.93
67818;BME280;54614;47.576;7.524;2023-04-26T01:45:04;98541.59;;;25.25;34.84
67818;BME280;54614;47.576;7.524;2023-04-26T01:47:31;98535.59;;;25.23;34.94
67818;BME280;54614;47.576;7.524;2023-04-26T01:49:56;98535.38;;;25.25;34.96
67818;BME280;54614;47.576;7.524;2023-04-26T01:52:22;98539.94;;;25.24;34.96
67818;BME280;54614;47.576;7.524;2023-04-26T01:54:48;98536.63;;;25.22;34.93
67818;BME280;54614;47.576;7.524;2023-04-26T01:57:14;98535.81;;;25.22;34.76
67818;BME280;54614;47.576;7.524;2023-04-26T01:59:40;98544.50;;;25.24;34.97
67818;BME280;54614;47.576;7.524;2023-04-26T02:02:05;98540.16;;;25.23;34.72
67818;BME280;54614;47.576;7.524;2023-04-26T02:04:31;98538.28;;;25.23;34.93
67818;BME280;54614;47.576;7.524;2023-04-26T02:06:57;98540.38;;;25.21;35.27
67818;BME280;54614;47.576;7.524;2023-04-26T02:09:23;98533.94;;;25.22;35.24
67818;BME280;54614;47.576;7.524;2023-04-26T02:11:49;98530.44;;;25.22;35.11
67818;BME280;54614;47.576;7.524;2023-04-26T02:14:14;98531.69;;;25.19;35.03
67818;BME280;54614;47.576;7.524;2023-04-26T02:16:40;98534.38;;;25.19;35.06
67818;BME280;54614;47.576;7.524;2023-04-26T02:19:06;98535.81;;;25.22;34.97
67818;BME280;54614;47.576;7.524;2023-04-26T02:21:56;98521.31;;;25.23;35.01
67818;BME280;54614;47.576;7.524;2023-04-26T02:24:25;98532.50;;;25.20;34.91
67818;BME280;54614;47.576;7.524;2023-04-26T02:26:51;98529.81;;;25.20;35.21
67818;BME280;54614;47.576;7.524;2023-04-26T02:29:19;98532.50;;;25.20;35.06
67818;BME280;54614;47.576;7.524;2023-04-26T02:31:45;98537.06;;;25.19;34.95
67818;BME280;54614;47.576;7.524;2023-04-26T02:34:13;98532.94;;;25.17;34.95
67818;BME280;54614;47.576;7.524;2023-04-26T02:36:39;98539.38;;;25.16;35.31
67818;BME280;54614;47.576;7.524;2023-04-26T02:39:04;98538.94;;;25.19;34.93
67818;BME280;54614;47.576;7.524;2023-04-26T02:41:31;98533.78;;;25.17;35.24
67818;BME280;54614;47.576;7.524;2023-04-26T02:43:57;98534.19;;;25.14;34.99
67818;BME280;54614;47.576;7.524;2023-04-26T02:46:24;98531.28;;;25.16;35.25
67818;BME280;54614;47.576;7.524;2023-04-26T02:48:50;98523.22;;;25.16;35.00
67818;BME280;54614;47.576;7.524;2023-04-26T02:51:16;98520.31;;;25.17;34.78
67818;BME280;54614;47.576;7.524;2023-04-26T02:53:42;98530.25;;;25.17;35.14
67818;BME280;54614;47.576;7.524;2023-04-26T02:56:07;98529.44;;;25.16;35.13
67818;BME280;54614;47.576;7.524;2023-04-26T02:58:33;98528.38;;;25.17;34.93
67818;BME280;54614;47.576;7.524;2023-04-26T03:00:59;98526.13;;;25.14;35.23
67818;BME280;54614;47.576;7.524;2023-04-26T03:03:25;98525.91;;;25.16;34.77
67818;BME280;54614;47.576;7.524;2023-04-26T03:05:51;98516.19;;;25.15;35.05
67818;BME280;54614;47.576;7.524;2023-04-26T03:08:16;98514.31;;;25.15;35.10
67818;BME280;54614;47.576;7.524;2023-04-26T03:10:45;98510.41;;;25.11;34.97
67818;BME280;54614;47.576;7.524;2023-04-26T03:13:11;98511.25;;;25.12;35.02
67818;BME280;54614;47.576;7.524;2023-04-26T03:15:37;98518.88;;;25.15;35.12
67818;BME280;54614;47.576;7.524;2023-04-26T03:18:03;98509.59;;;25.11;35.04
67818;BME280;54614;47.576;7.524;2023-04-26T03:20:29;98515.19;;;25.09;34.87
67818;BME280;54614;47.576;7.524;2023-04-26T03:22:55;98509.84;;;25.02;35.11
67818;BME280;54614;47.576;7.524;2023-04-26T03:25:20;98508.53;;;25.12;34.86
67818;BME280;54614;47.576;7.524;2023-04-26T03:27:46;98506.91;;;25.11;34.99
67818;BME280;54614;47.576;7.524;2023-04-26T03:30:12;98509.81;;;25.09;34.88
67818;BME280;54614;47.576;7.524;2023-04-26T03:32:39;98514.53;;;25.14;34.85
67818;BME280;54614;47.576;7.524;2023-04-26T03:35:05;98518.28;;;25.13;34.76
67818;BME280;54614;47.576;7.524;2023-04-26T03:37:31;98509.81;;;25.09;34.66
67818;BME280;54614;47.576;7.524;2023-04-26T03:39:57;98513.09;;;25.11;34.63
67818;BME280;54614;47.576;7.524;2023-04-26T03:42:23;98510.63;;;25.10;34.67
67818;BME280;54614;47.576;7.524;2023-04-26T03:44:48;98511.88;;;25.07;34.95
67818;BME280;54614;47.576;7.524;2023-04-26T03:47:14;98514.34;;;25.09;35.26
67818;BME280;54614;47.576;7.524;2023-04-26T03:49:41;98516.50;;;24.93;35.80
67818;BME280;54614;47.576;7.524;2023-04-26T03:52:07;98509.03;;;25.02;35.39
67818;BME280;54614;47.576;7.524;2023-04-26T03:54:33;98505.84;;;25.12;34.93
67818;BME280;54614;47.576;7.524;2023-04-26T03:56:59;98497.56;;;25.13;34.95
67818;BME280;54614;47.576;7.524;2023-04-26T03:59:25;98493.44;;;25.11;34.85
67818;BME280;54614;47.576;7.524;2023-04-26T04:01:51;98499.88;;;25.10;35.07
67818;BME280;54614;47.576;7.524;2023-04-26T04:04:17;98501.28;;;25.12;35.14
67818;BME280;54614;47.576;7.524;2023-04-26T04:06:43;98501.50;;;25.11;35.19
67818;BME280;54614;47.576;7.524;2023-04-26T04:09:08;98503.59;;;25.09;35.16
67818;BME280;54614;47.576;7.524;2023-04-26T04:11:34;98500.47;;;25.12;35.08
67818;BME280;54614;47.576;7.524;2023-04-26T04:14:00;98491.19;;;25.08;35.01
67818;BME280;54614;47.576;7.524;2023-04-26T04:16:27;98498.22;;;25.09;34.96
67818;BME280;54614;47.576;7.524;2023-04-26T04:18:55;98496.97;;;25.11;34.85
67818;BME280;54614;47.576;7.524;2023-04-26T04:21:21;98503.59;;;25.09;35.06
67818;BME280;54614;47.576;7.524;2023-04-26T04:23:47;98500.91;;;25.09;35.04
67818;BME280;54614;47.576;7.524;2023-04-26T04:26:12;98501.56;;;25.04;35.01
67818;BME280;54614;47.576;7.524;2023-04-26T04:28:39;98500.50;;;25.05;34.79
67818;BME280;54614;47.576;7.524;2023-04-26T04:31:06;98497.59;;;25.06;34.62
67818;BME280;54614;47.576;7.524;2023-04-26T04:33:35;98504.03;;;25.05;34.85
67818;BME280;54614;47.576;7.524;2023-04-26T04:36:01;98499.72;;;24.98;34.91
67818;BME280;54614;47.576;7.524;2023-04-26T04:38:27;98505.94;;;24.98;34.86
67818;BME280;54614;47.576;7.524;2023-04-26T04:40:54;98502.81;;;25.01;34.97
67818;BME280;54614;47.576;7.524;2023-04-26T04:43:20;98498.25;;;25.02;34.63
67818;BME280;54614;47.576;7.524;2023-04-26T04:45:46;98502.41;;;24.98;34.54
67818;BME280;54614;47.576;7.524;2023-04-26T04:48:14;98509.25;;;25.00;34.85
67818;BME280;54614;47.576;7.524;2023-04-26T04:50:40;98510.50;;;24.98;34.59
67818;BME280;54614;47.576;7.524;2023-04-26T04:53:07;98514.00;;;24.98;34.94
67818;BME280;54614;47.576;7.524;2023-04-26T04:55:39;98519.19;;;25.00;34.75
67818;BME280;54614;47.576;7.524;2023-04-26T04:58:05;98519.38;;;24.98;34.82
67818;BME280;54614;47.576;7.524;2023-04-26T05:00:31;98512.53;;;24.96;34.63
67818;BME280;54614;47.576;7.524;2023-04-26T05:02:57;98520.22;;;24.99;34.73
67818;BME280;54614;47.576;7.524;2023-04-26T05:05:23;98527.47;;;24.98;34.80
67818;BME280;54614;47.576;7.524;2023-04-26T05:07:48;98532.63;;;25.00;34.54
67818;BME280;54614;47.576;7.524;2023-04-26T05:10:15;98535.94;;;25.02;34.53
67818;BME280;54614;47.576;7.524;2023-04-26T05:12:41;98539.44;;;25.02;34.87
67818;BME280;54614;47.576;7.524;2023-04-26T05:15:07;98540.88;;;25.05;34.86
67818;BME280;54614;47.576;7.524;2023-04-26T05:17:33;98546.69;;;25.02;34.74
67818;BME280;54614;47.576;7.524;2023-04-26T05:19:59;98554.16;;;25.00;34.59
67818;BME280;54614;47.576;7.524;2023-04-26T05:22:28;98547.31;;;25.04;34.62
67818;BME280;54614;47.576;7.524;2023-04-26T05:24:55;98551.03;;;25.03;34.97
67818;BME280;54614;47.576;7.524;2023-04-26T05:27:21;98559.94;;;25.03;34.72
67818;BME280;54614;47.576;7.524;2023-04-26T05:29:46;98559.09;;;25.03;34.80
67818;BME280;54614;47.576;7.524;2023-04-26T05:32:13;98563.66;;;25.02;34.86
67818;BME280;54614;47.576;7.524;2023-04-26T05:34:38;98566.34;;;25.02;34.83
67818;BME280;54614;47.576;7.524;2023-04-26T05:37:04;98562.00;;;25.01;34.90
67818;BME280;54614;47.576;7.524;2023-04-26T05:39:30;98568.22;;;25.02;34.89
67818;BME280;54614;47.576;7.524;2023-04-26T05:41:56;98569.03;;;25.02;34.80
67818;BME280;54614;47.576;7.524;2023-04-26T05:44:22;98573.00;;;25.00;34.87
67818;BME280;54614;47.576;7.524;2023-04-26T05:46:48;98565.53;;;25.02;34.98
67818;BME280;54614;47.576;7.524;2023-04-26T05:49:14;98570.91;;;25.02;34.97
67818;BME280;54614;47.576;7.524;2023-04-26T05:51:39;98574.22;;;25.04;35.11
67818;BME280;54614;47.576;7.524;2023-04-26T05:54:05;98576.09;;;25.03;34.96
67818;BME280;54614;47.576;7.524;2023-04-26T05:56:31;98579.81;;;25.02;35.01
67818;BME280;54614;47.576;7.524;2023-04-26T05:58:57;98580.44;;;25.04;34.93
67818;BME280;54614;47.576;7.524;2023-04-26T06:01:23;98581.47;;;25.03;34.82
67818;BME280;54614;47.576;7.524;2023-04-26T06:03:49;98577.94;;;25.03;34.78
67818;BME280;54614;47.576;7.524;2023-04-26T06:06:15;98579.00;;;25.02;34.93
67818;BME280;54614;47.576;7.524;2023-04-26T06:08:42;98583.13;;;25.04;35.04
67818;BME280;54614;47.576;7.524;2023-04-26T06:11:08;98591.63;;;25.01;35.04
67818;BME280;54614;47.576;7.524;2023-04-26T06:13:34;98577.34;;;25.01;34.82
67818;BME280;54614;47.576;7.524;2023-04-26T06:16:00;98587.06;;;25.02;34.82
67818;BME280;54614;47.576;7.524;2023-04-26T06:18:26;98595.34;;;25.00;34.68
67818;BME280;54614;47.576;7.524;2023-04-26T06:20:51;98590.59;;;25.02;34.82
67818;BME280;54614;47.576;7.524;2023-04-26T06:23:17;98591.63;;;25.01;34.72
67818;BME280;54614;47.576;7.524;2023-04-26T06:25:43;98590.59;;;25.02;34.95
67818;BME280;54614;47.576;7.524;2023-04-26T06:28:11;98594.31;;;25.01;34.85
67818;BME280;54614;47.576;7.524;2023-04-26T06:30:37;98601.16;;;24.97;35.30
67818;BME280;54614;47.576;7.524;2023-04-26T06:33:03;98598.66;;;25.02;34.83
67818;BME280;54614;47.576;7.524;2023-04-26T06:35:29;98598.44;;;25.04;34.96
67818;BME280;54614;47.576;7.524;2023-04-26T06:37:56;98579.81;;;25.02;34.80
67818;BME280;54614;47.576;7.524;2023-04-26T06:40:21;98594.94;;;24.97;35.31
67818;BME280;54614;47.576;7.524;2023-04-26T06:42:47;98584.81;;;24.99;35.07
67818;BME280;54614;47.576;7.524;2023-04-26T06:45:13;98587.50;;;24.92;35.21
67818;BME280;54614;47.576;7.524;2023-04-26T06:47:39;98587.88;;;24.96;35.12
67818;BME280;54614;47.576;7.524;2023-04-26T06:50:06;98592.03;;;24.98;35.12
67818;BME280;54614;47.576;7.524;2023-04-26T06:52:32;98583.75;;;25.00;35.00
67818;BME280;54614;47.576;7.524;2023-04-26T06:55:02;98585.63;;;24.99;35.07
67818;BME280;54614;47.576;7.524;2023-04-26T06:57:28;98586.66;;;24.98;35.13
67818;BME280;54614;47.576;7.524;2023-04-26T06:59:54;98595.56;;;24.99;35.08
67818;BME280;54614;47.576;7.524;2023-04-26T07:02:20;98583.53;;;24.95;35.34
67818;BME280;54614;47.576;7.524;2023-04-26T07:04:48;98581.94;;;24.81;38.35
67818;BME280;54614;47.576;7.524;2023-04-26T07:07:13;98577.84;;;24.71;39.55
67818;BME280;54614;47.576;7.524;2023-04-26T07:09:41;98581.56;;;24.70;39.03
67818;BME280;54614;47.576;7.524;2023-04-26T07:12:07;98579.72;;;24.71;38.39
67818;BME280;54614;47.576;7.524;2023-04-26T07:14:35;98573.91;;;24.74;38.03
67818;BME280;54614;47.576;7.524;2023-04-26T07:17:08;98572.63;;;24.83;37.04
67818;BME280;54614;47.576;7.524;2023-04-26T07:19:34;98568.44;;;25.00;35.73
67818;BME280;54614;47.576;7.524;2023-04-26T07:22:00;98572.06;;;25.19;35.23
67818;BME280;54614;47.576;7.524;2023-04-26T07:24:26;98583.03;;;25.18;35.24
67818;BME280;54614;47.576;7.524;2023-04-26T07:26:52;98577.28;;;25.14;36.00
67818;BME280;54614;47.576;7.524;2023-04-26T07:29:18;98570.81;;;25.22;35.90
67818;BME280;54614;47.576;7.524;2023-04-26T07:31:45;98572.47;;;25.23;35.48
67818;BME280;54614;47.576;7.524;2023-04-26T07:34:11;98568.84;;;25.04;36.24
67818;BME280;54614;47.576;7.524;2023-04-26T07:36:36;98569.25;;;24.94;40.93
67818;BME280;54614;47.576;7.524;2023-04-26T07:39:02;98569.31;;;24.81;40.94
67818;BME280;54614;47.576;7.524;2023-04-26T07:41:30;98573.66;;;24.82;39.50
67818;BME280;54614;47.576;7.524;2023-04-26T07:43:56;98567.84;;;24.85;39.70
67818;BME280;54614;47.576;7.524;2023-04-26T07:46:22;98561.63;;;24.91;39.83
67818;BME280;54614;47.576;7.524;2023-04-26T07:48:48;98551.22;;;25.08;38.61
67818;BME280;54614;47.576;7.524;2023-04-26T07:51:14;98554.66;;;25.22;37.59
67818;BME280;54614;47.576;7.524;2023-04-26T07:53:40;98555.88;;;25.26;37.03
67818;BME280;54614;47.576;7.524;2023-04-26T07:56:07;98551.00;;;25.41;36.34
67818;BME280;54614;47.576;7.524;2023-04-26T07:58:37;98556.00;;;25.37;36.45
67818;BME280;54614;47.576;7.524;2023-04-26T08:01:04;98553.41;;;25.24;36.52
67818;BME280;54614;47.576;7.524;2023-04-26T08:03:30;98558.69;;;25.37;36.61
67818;BME280;54614;47.576;7.524;2023-04-26T08:05:56;98555.22;;;25.30;36.89
67818;BME280;54614;47.576;7.524;2023-04-26T08:08:25;98555.94;;;25.13;37.13
67818;BME280;54614;47.576;7.524;2023-04-26T08:10:51;98552.19;;;25.20;36.91
67818;BME280;54614;47.576;7.524;2023-04-26T08:13:17;98552.41;;;25.19;36.97
67818;BME280;54614;47.576;7.524;2023-04-26T08:15:43;98561.44;;;25.31;36.36
67818;BME280;54614;47.576;7.524;2023-04-26T08:18:09;98553.91;;;25.39;35.84
67818;BME280;54614;47.576;7.524;2023-04-26T08:20:35;98548.75;;;25.38;35.94
67818;BME280;54614;47.576;7.524;2023-04-26T08:23:01;98546.66;;;25.40;35.87
67818;BME280;54614;47.576;7.524;2023-04-26T08:25:27;98544.00;;;25.33;36.24
67818;BME280;54614;47.576;7.524;2023-04-26T08:27:53;98541.97;;;25.29;36.05
67818;BME280;54614;47.576;7.524;2023-04-26T08:30:19;98548.53;;;25.39;36.02
67818;BME280;54614;47.576;7.524;2023-04-26T08:32:45;98552.88;;;25.41;36.47
67818;BME280;54614;47.576;7.524;2023-04-26T08:35:11;98542.28;;;25.46;35.99
67818;BME280;54614;47.576;7.524;2023-04-26T08:37:37;98551.44;;;25.38;36.43
67818;BME280;54614;47.576;7.524;2023-04-26T08:40:07;98554.13;;;25.38;36.67
67818;BME280;54614;47.576;7.524;2023-04-26T08:42:42;98557.84;;;25.05;37.33
67818;BME280;54614;47.576;7.524;2023-04-26T08:45:11;98552.50;;;24.99;37.48
67818;BME280;54614;47.576;7.524;2023-04-26T08:47:47;98561.09;;;25.21;36.52
67818;BME280;54614;47.576;7.524;2023-04-26T08:50:15;98550.88;;;25.29;36.54
67818;BME280;54614;47.576;7.524;2023-04-26T08:52:42;98552.31;;;25.32;36.24
67818;BME280;54614;47.576;7.524;2023-04-26T08:55:10;98545.19;;;25.44;35.86
67818;BME280;54614;47.576;7.524;2023-04-26T08:57:38;98549.09;;;25.17;37.01
67818;BME280;54614;47.576;7.524;2023-04-26T09:00:06;98553.75;;;24.90;37.53
67818;BME280;54614;47.576;7.524;2023-04-26T09:02:39;98553.56;;;24.91;37.66
67818;BME280;54614;47.576;7.524;2023-04-26T09:05:06;98548.00;;;24.86;37.79
67818;BME280;54614;47.576;7.524;2023-04-26T09:07:43;98554.22;;;24.80;37.84
67818;BME280;54614;47.576;7.524;2023-04-26T09:10:10;98557.28;;;24.97;37.84
67818;BME280;54614;47.576;7.524;2023-04-26T09:12:38;98558.78;;;24.80;38.59
67818;BME280;54614;47.576;7.524;2023-04-26T09:15:06;98555.75;;;25.14;37.83
67818;BME280;54614;47.576;7.524;2023-04-26T09:17:37;98546.03;;;25.06;37.74
67818;BME280;54614;47.576;7.524;2023-04-26T09:20:26;98553.56;;;25.29;37.15
67818;BME280;54614;47.576;7.524;2023-04-26T09:23:04;98545.19;;;25.44;36.55
67818;BME280;54614;47.576;7.524;2023-04-26T09:25:32;98548.53;;;25.39;36.89
67818;BME280;54614;47.576;7.524;2023-04-26T09:27:59;98554.34;;;25.36;37.08
67818;BME280;54614;47.576;7.524;2023-04-26T09:30:26;98564.03;;;25.44;36.60
67818;BME280;54614;47.576;7.524;2023-04-26T09:33:01;98553.59;;;25.54;36.04
67818;BME280;54614;47.576;7.524;2023-04-26T09:38:08;98555.66;;;25.59;35.60
67818;BME280;54614;47.576;7.524;2023-04-26T09:43:17;98552.50;;;25.62;35.63
67818;BME280;54614;47.576;7.524;2023-04-26T09:45:50;98557.06;;;25.61;35.10
67818;BME280;54614;47.576;7.524;2023-04-26T09:48:21;98552.09;;;25.65;35.03
67818;BME280;54614;47.576;7.524;2023-04-26T09:51:07;98560.38;;;25.63;35.03
67818;BME280;54614;47.576;7.524;2023-04-26T09:53:45;98554.13;;;25.69;34.83
67818;BME280;54614;47.576;7.524;2023-04-26T09:56:13;98546.66;;;25.72;34.92
67818;BME280;54614;47.576;7.524;2023-04-26T10:01:14;98540.88;;;25.68;34.71
67818;BME280;54614;47.576;7.524;2023-04-26T10:03:40;98543.97;;;25.72;34.59
67818;BME280;54614;47.576;7.524;2023-04-26T10:06:11;98542.31;;;25.70;34.93
67818;BME280;54614;47.576;7.524;2023-04-26T10:08:38;98539.66;;;25.64;34.60
67818;BME280;54614;47.576;7.524;2023-04-26T10:11:05;98544.22;;;25.63;34.86
67818;BME280;54614;47.576;7.524;2023-04-26T10:13:36;98540.09;;;25.61;34.97
67818;BME280;54614;47.576;7.524;2023-04-26T10:16:02;98540.09;;;25.61;34.75
67818;BME280;54614;47.576;7.524;2023-04-26T10:18:30;98538.22;;;25.61;34.89
67818;BME280;54614;47.576;7.524;2023-04-26T10:21:06;98536.53;;;25.67;34.73
67818;BME280;54614;47.576;7.524;2023-04-26T10:23:35;98538.81;;;25.70;34.75
67818;BME280;54614;47.576;7.524;2023-04-26T10:26:01;98542.31;;;25.70;34.37
67818;BME280;54614;47.576;7.524;2023-04-26T10:31:06;98533.78;;;25.74;34.36
67818;BME280;54614;47.576;7.524;2023-04-26T10:33:32;98534.41;;;25.76;34.40
67818;BME280;54614;47.576;7.524;2023-04-26T10:36:09;98537.09;;;25.76;34.20
67818;BME280;54614;47.576;7.524;2023-04-26T10:38:39;98528.41;;;25.74;34.29
67818;BME280;54614;47.576;7.524;2023-04-26T10:41:29;98534.63;;;25.74;34.44
67818;BME280;54614;47.576;7.524;2023-04-26T10:43:56;98525.72;;;25.74;34.65
67818;BME280;54614;47.576;7.524;2023-04-26T10:46:36;98523.06;;;25.67;34.71
67818;BME280;54614;47.576;7.524;2023-04-26T10:49:14;98524.88;;;25.73;34.39
67818;BME280;54614;47.576;7.524;2023-04-26T10:51:40;98517.69;;;25.67;34.56
67818;BME280;54614;47.576;7.524;2023-04-26T10:55:04;98510.38;;;25.74;34.59
67818;BME280;54614;47.576;7.524;2023-04-26T10:57:49;98517.63;;;25.74;34.26
67818;BME280;54614;47.576;7.524;2023-04-26T11:08:25;98507.28;;;25.70;34.84
67818;BME280;54614;47.576;7.524;2023-04-26T11:11:07;98501.00;;;25.52;35.33
67818;BME280;54614;47.576;7.524;2023-04-26T11:13:37;98503.28;;;25.23;36.06
67818;BME280;54614;47.576;7.524;2023-04-26T11:16:06;98504.22;;;25.11;36.39
67818;BME280;54614;47.576;7.524;2023-04-26T11:18:34;98494.59;;;25.21;36.25
67818;BME280;54614;47.576;7.524;2023-04-26T11:21:01;98493.81;;;25.14;36.21
67818;BME280;54614;47.576;7.524;2023-04-26T11:23:30;98499.59;;;25.18;36.45
67818;BME280;54614;47.576;7.524;2023-04-26T11:26:02;98491.88;;;25.28;36.36
67818;BME280;54614;47.576;7.524;2023-04-26T11:28:34;98492.22;;;25.38;36.20
67818;BME280;54614;47.576;7.524;2023-04-26T11:31:02;98500.56;;;25.55;35.78
67818;BME280;54614;47.576;7.524;2023-04-26T11:33:29;98496.31;;;25.72;35.26
67818;BME280;54614;47.576;7.524;2023-04-26T11:35:57;98489.75;;;25.86;34.53
67818;BME280;54614;47.576;7.524;2023-04-26T11:38:28;98479.56;;;25.88;34.40
67818;BME280;54614;47.576;7.524;2023-04-26T11:41:00;98477.09;;;25.87;33.96
67818;BME280;54614;47.576;7.524;2023-04-26T11:43:38;98475.44;;;25.86;33.91
67818;BME280;54614;47.576;7.524;2023-04-26T11:46:06;98466.31;;;25.87;34.06
67818;BME280;54614;47.576;7.524;2023-04-26T11:48:34;98464.06;;;25.84;33.97
67818;BME280;54614;47.576;7.524;2023-04-26T11:51:03;98464.88;;;25.84;33.98
67818;BME280;54614;47.576;7.524;2023-04-26T11:53:41;98466.31;;;25.87;33.87
67818;BME280;54614;47.576;7.524;2023-04-26T11:56:18;98469.69;;;25.82;34.04
67818;BME280;54614;47.576;7.524;2023-04-26T11:58:50;98463.63;;;25.87;33.90
67818;BME280;54614;47.576;7.524;2023-04-26T12:01:26;98466.31;;;25.87;34.16
67818;BME280;54614;47.576;7.524;2023-04-26T12:03:55;98467.38;;;25.86;33.81
67818;BME280;54614;47.576;7.524;2023-04-26T12:06:50;98452.84;;;25.87;33.91
67818;BME280;54614;47.576;7.524;2023-04-26T12:09:30;98453.28;;;25.84;33.82
67818;BME280;54614;47.576;7.524;2023-04-26T12:14:39;98453.88;;;25.86;34.11
67818;BME280;54614;47.576;7.524;2023-04-26T12:17:06;98453.28;;;25.84;33.97
67818;BME280;54614;47.576;7.524;2023-04-26T12:19:38;98451.41;;;25.84;34.11
67818;BME280;54614;47.576;7.524;2023-04-26T12:22:05;98456.34;;;25.87;33.73
67818;BME280;54614;47.576;7.524;2023-04-26T12:24:32;98453.28;;;25.84;33.86
67818;BME280;54614;47.576;7.524;2023-04-26T12:27:02;98459.06;;;25.87;33.88
67818;BME280;54614;47.576;7.524;2023-04-26T12:29:29;98449.53;;;25.85;33.97
67818;BME280;54614;47.576;7.524;2023-04-26T12:31:57;98449.31;;;25.86;33.86
67818;BME280;54614;47.576;7.524;2023-04-26T12:34:23;98449.53;;;25.85;33.78
67818;BME280;54614;47.576;7.524;2023-04-26T12:36:49;98445.81;;;25.86;33.84
67818;BME280;54614;47.576;7.524;2023-04-26T12:39:15;98440.41;;;25.86;33.81
67818;BME280;54614;47.576;7.524;2023-04-26T12:41:42;98440.03;;;25.82;33.80
67818;BME280;54614;47.576;7.524;2023-04-26T12:44:09;98444.38;;;25.83;33.98
67818;BME280;54614;47.576;7.524;2023-04-26T12:46:35;98434.19;;;25.85;33.78
67818;BME280;54614;47.576;7.524;2023-04-26T12:49:01;98436.06;;;25.85;33.71
67818;BME280;54614;47.576;7.524;2023-04-26T12:51:28;98435.03;;;25.86;33.65
67818;BME280;54614;47.576;7.524;2023-04-26T12:53:55;98433.38;;;25.85;33.79
67818;BME280;54614;47.576;7.524;2023-04-26T12:56:21;98423.66;;;25.84;33.63
67818;BME280;54614;47.576;7.524;2023-04-26T12:58:47;98423.66;;;25.84;33.70
67818;BME280;54614;47.576;7.524;2023-04-26T13:01:15;98437.94;;;25.84;33.49
67818;BME280;54614;47.576;7.524;2023-04-26T13:03:41;98423.88;;;25.82;33.50
67818;BME280;54614;47.576;7.524;2023-04-26T13:06:07;98428.88;;;25.79;33.56
67818;BME280;54614;47.576;7.524;2023-04-26T13:08:33;98437.94;;;25.84;33.37
67818;BME280;54614;47.576;7.524;2023-04-26T13:10:59;98422.00;;;25.83;33.47
67818;BME280;54614;47.576;7.524;2023-04-26T13:13:25;98417.81;;;25.87;33.35
67818;BME280;54614;47.576;7.524;2023-04-26T13:15:51;98409.94;;;25.85;33.41
67818;BME280;54614;47.576;7.524;2023-04-26T13:18:16;98411.00;;;25.84;33.90
67818;BME280;54614;47.576;7.524;2023-04-26T13:20:43;98418.25;;;25.84;33.72
67818;BME280;54614;47.576;7.524;2023-04-26T13:23:09;98419.09;;;25.84;33.78
67818;BME280;54614;47.576;7.524;2023-04-26T13:25:37;98411.81;;;25.85;34.12